createdAt,value
2022-11-12T00:00:50.383Z,10.60
2022-11-12T00:03:51.991Z,10.30
2022-11-12T00:06:53.565Z,10.50
2022-11-12T00:09:55.162Z,10.70
2022-11-12T00:12:56.688Z,10.30
2022-11-12T00:15:58.228Z,10.40
2022-11-12T00:18:59.786Z,10.10
2022-11-12T00:22:01.296Z,10.50
2022-11-12T00:25:03.940Z,10.20
2022-11-12T00:28:08.852Z,10.60
2022-11-12T00:31:11.839Z,10.40
2022-11-12T00:34:13.474Z,10.50
2022-11-12T00:37:15.003Z,10.50
2022-11-12T00:40:16.628Z,9.90
2022-11-12T00:43:18.301Z,10.40
2022-11-12T00:46:19.880Z,9.90
2022-11-12T00:49:21.804Z,9.50
2022-11-12T00:52:23.368Z,9.80
2022-11-12T00:55:24.945Z,9.80
2022-11-12T00:58:29.093Z,9.90
2022-11-12T01:01:30.658Z,9.50
2022-11-12T01:04:32.382Z,9.60
2022-11-12T01:07:34.875Z,9.20
2022-11-12T01:10:36.662Z,9.30
2022-11-12T01:13:43.986Z,9.30
2022-11-12T01:16:46.319Z,9.80
2022-11-12T01:19:47.869Z,9.30
2022-11-12T01:22:49.449Z,9.40
2022-11-12T01:25:51.016Z,9.10
2022-11-12T01:28:53.144Z,9.00
2022-11-12T01:31:54.765Z,9.20
2022-11-12T01:34:56.326Z,9.10
2022-11-12T01:37:57.922Z,9.40
2022-11-12T01:40:59.441Z,8.60
2022-11-12T01:44:20.319Z,9.20
2022-11-12T01:47:29.680Z,9.10
2022-11-12T01:50:33.808Z,8.90
2022-11-12T01:53:40.457Z,8.70
2022-11-12T01:56:42.757Z,9.10
2022-11-12T01:59:46.553Z,8.50
2022-11-12T02:02:55.019Z,9.00
2022-11-12T02:06:01.513Z,8.60
2022-11-12T02:09:03.744Z,8.90
2022-11-12T02:12:06.059Z,8.30
2022-11-12T02:15:08.000Z,9.00
2022-11-12T02:18:09.571Z,8.70
2022-11-12T02:21:11.205Z,9.00
2022-11-12T02:24:12.698Z,9.00
2022-11-12T02:27:14.404Z,8.70
2022-11-12T02:30:16.094Z,8.70
2022-11-12T02:33:17.616Z,8.40
2022-11-12T02:36:19.283Z,10.50
2022-11-12T02:39:20.866Z,8.60
2022-11-12T02:42:22.416Z,8.60
2022-11-12T02:45:24.050Z,8.50
2022-11-12T02:48:25.834Z,8.50
2022-11-12T02:51:27.542Z,8.30
2022-11-12T02:54:29.073Z,8.20
2022-11-12T02:57:30.877Z,8.70
2022-11-12T03:00:32.430Z,8.20
2022-11-12T03:03:33.934Z,9.30
2022-11-12T03:06:35.514Z,8.20
2022-11-12T03:09:37.124Z,8.20
2022-11-12T03:12:38.732Z,8.40
2022-11-12T03:15:40.251Z,8.20
2022-11-12T03:18:41.907Z,8.50
2022-11-12T03:21:43.453Z,8.30
2022-11-12T03:24:44.999Z,8.70
2022-11-12T03:27:46.554Z,8.80
2022-11-12T03:30:48.199Z,8.70
2022-11-12T03:33:49.718Z,8.60
2022-11-12T03:36:51.281Z,8.70
2022-11-12T03:39:52.786Z,8.70
2022-11-12T03:42:54.899Z,8.70
2022-11-12T03:45:56.412Z,8.70
2022-11-12T03:48:59.185Z,8.90
2022-11-12T03:52:00.708Z,8.30
2022-11-12T03:55:02.235Z,8.50
2022-11-12T03:58:03.903Z,8.50
2022-11-12T04:01:05.547Z,8.80
2022-11-12T04:04:07.111Z,8.90
2022-11-12T04:07:27.545Z,8.50
2022-11-12T04:14:42.140Z,8.40
2022-11-12T04:18:02.167Z,9.00
2022-11-12T04:21:22.546Z,8.30
2022-11-12T04:24:51.072Z,8.40
2022-11-12T04:27:52.605Z,8.80
2022-11-12T04:30:54.162Z,8.80
2022-11-12T04:33:55.698Z,8.50
2022-11-12T04:36:57.238Z,8.70
2022-11-12T04:40:18.733Z,8.30
2022-11-12T04:43:38.963Z,8.40
2022-11-12T04:46:40.523Z,8.60
2022-11-12T04:49:42.035Z,8.00
2022-11-12T04:52:44.198Z,8.40
2022-11-12T04:55:45.735Z,8.00
2022-11-12T04:58:47.277Z,8.40
2022-11-12T05:01:48.861Z,8.10
2022-11-12T05:04:50.467Z,7.90
2022-11-12T05:07:51.974Z,8.10
2022-11-12T05:10:53.585Z,8.40
2022-11-12T05:13:55.105Z,7.70
2022-11-12T05:16:56.714Z,8.30
2022-11-12T05:19:58.214Z,8.10
2022-11-12T05:23:06.804Z,7.90
2022-11-12T05:26:08.801Z,7.60
2022-11-12T05:29:10.342Z,8.00
2022-11-12T05:32:14.894Z,7.90
2022-11-12T05:35:16.583Z,7.70
2022-11-12T05:38:18.103Z,7.50
2022-11-12T05:41:20.254Z,7.80
2022-11-12T05:44:22.075Z,7.30
2022-11-12T05:47:23.621Z,7.90
2022-11-12T05:50:28.178Z,7.70
2022-11-12T05:53:36.231Z,7.80
2022-11-12T05:56:38.687Z,7.60
2022-11-12T05:59:40.210Z,7.80
2022-11-12T06:02:43.027Z,7.60
2022-11-12T06:05:44.756Z,7.90
2022-11-12T06:08:46.350Z,7.70
2022-11-12T06:11:47.887Z,7.80
2022-11-12T06:14:49.409Z,7.50
2022-11-12T06:17:51.000Z,7.50
2022-11-12T06:21:11.442Z,7.20
2022-11-12T06:24:13.085Z,7.50
2022-11-12T06:27:14.617Z,7.50
2022-11-12T06:30:21.658Z,7.40
2022-11-12T06:33:26.127Z,7.60
2022-11-12T06:36:27.657Z,7.20
2022-11-12T06:39:29.196Z,8.10
2022-11-12T06:42:30.928Z,7.30
2022-11-12T06:45:32.463Z,7.30
2022-11-12T06:48:34.045Z,7.20
2022-11-12T06:51:35.765Z,7.30
2022-11-12T06:54:37.342Z,7.80
2022-11-12T06:57:38.908Z,9.90
2022-11-12T07:00:40.489Z,7.30
2022-11-12T07:03:43.949Z,7.80
2022-11-12T07:06:45.606Z,7.40
2022-11-12T07:09:47.188Z,7.70
2022-11-12T07:12:53.197Z,7.60
2022-11-12T07:15:58.160Z,7.90
2022-11-12T07:18:59.758Z,7.80
2022-11-12T07:22:01.269Z,7.90
2022-11-12T07:25:03.040Z,8.00
2022-11-12T07:28:04.657Z,7.70
2022-11-12T07:31:09.709Z,8.90
2022-11-12T07:34:11.227Z,7.60
2022-11-12T07:37:12.872Z,7.70
2022-11-12T07:40:15.142Z,7.60
2022-11-12T07:43:16.684Z,7.70
2022-11-12T07:46:19.435Z,7.50
2022-11-12T07:49:21.036Z,7.50
2022-11-12T07:52:22.701Z,7.60
2022-11-12T07:55:24.266Z,7.40
2022-11-12T07:58:27.171Z,7.60
2022-11-12T08:01:36.694Z,7.60
2022-11-12T08:04:38.239Z,7.80
2022-11-12T08:07:39.855Z,7.40
2022-11-12T08:10:41.636Z,7.70
2022-11-12T08:13:43.319Z,7.50
2022-11-12T08:16:46.547Z,8.00
2022-11-12T08:19:48.167Z,7.60
2022-11-12T08:22:49.909Z,7.50
2022-11-12T08:25:51.506Z,7.70
2022-11-12T08:28:53.052Z,7.80
2022-11-12T08:31:54.617Z,8.10
2022-11-12T08:34:56.180Z,7.80
2022-11-12T08:38:02.527Z,8.90
2022-11-12T08:41:06.641Z,8.30
2022-11-12T08:44:08.974Z,8.20
2022-11-12T08:47:10.776Z,8.40
2022-11-12T08:50:12.460Z,8.40
2022-11-12T08:53:14.170Z,8.30
2022-11-12T08:56:15.997Z,8.40
2022-11-12T08:59:17.636Z,8.60
2022-11-12T09:02:19.251Z,8.60
2022-11-12T09:05:20.841Z,8.80
2022-11-12T09:08:25.287Z,9.50
2022-11-12T09:11:27.169Z,9.30
2022-11-12T09:14:29.938Z,9.40
2022-11-12T09:17:32.510Z,9.20
2022-11-12T09:20:34.359Z,9.40
2022-11-12T09:23:36.743Z,9.40
2022-11-12T09:26:38.247Z,9.40
2022-11-12T09:29:39.790Z,9.80
2022-11-12T09:32:41.411Z,9.80
2022-11-12T09:35:43.601Z,9.60
2022-11-12T09:38:45.219Z,10.10
2022-11-12T09:41:47.100Z,9.90
2022-11-12T09:44:57.222Z,10.40
2022-11-12T09:48:08.318Z,10.30
2022-11-12T09:51:21.604Z,10.30
2022-11-12T09:54:29.929Z,10.30
2022-11-12T09:57:33.446Z,10.80
2022-11-12T10:00:35.818Z,10.40
2022-11-12T10:03:46.637Z,10.50
2022-11-12T10:06:57.416Z,10.80
2022-11-12T10:10:20.249Z,10.60
2022-11-12T10:13:59.586Z,11.60
2022-11-12T10:17:27.920Z,11.60
2022-11-12T10:20:38.962Z,11.60
2022-11-12T10:23:46.171Z,12.00
2022-11-12T10:26:52.139Z,11.90
2022-11-12T10:29:59.639Z,12.60
2022-11-12T10:33:01.183Z,12.20
2022-11-12T10:36:19.986Z,11.70
2022-11-12T10:39:41.989Z,12.40
2022-11-12T10:43:16.093Z,12.70
2022-11-12T10:46:26.700Z,12.90
2022-11-12T10:49:28.256Z,13.00
2022-11-12T10:52:29.910Z,12.90
2022-11-12T10:55:35.040Z,13.10
2022-11-12T10:58:36.612Z,13.40
2022-11-12T11:01:43.016Z,13.50
2022-11-12T11:04:47.041Z,13.40
2022-11-12T11:07:51.485Z,13.50
2022-11-12T11:11:14.628Z,13.10
2022-11-12T11:14:22.357Z,13.30
2022-11-12T11:17:23.902Z,13.60
2022-11-12T11:20:43.993Z,13.30
2022-11-12T11:24:14.411Z,13.40
2022-11-12T11:27:25.318Z,13.20
2022-11-12T11:30:27.211Z,13.30
2022-11-12T11:33:37.687Z,15.00
2022-11-12T11:36:53.764Z,13.60
2022-11-12T11:40:16.511Z,13.30
2022-11-12T11:43:34.068Z,13.50
2022-11-12T11:47:04.784Z,13.80
2022-11-12T11:50:17.099Z,13.70
2022-11-12T11:53:18.626Z,13.10
2022-11-12T11:56:28.303Z,13.90
2022-11-12T12:00:07.200Z,14.10
2022-11-12T12:03:19.601Z,14.60
2022-11-12T12:06:32.076Z,14.20
2022-11-12T12:09:47.862Z,14.30
2022-11-12T12:13:05.303Z,14.00
2022-11-12T12:16:15.460Z,14.50
2022-11-12T12:19:41.451Z,14.50
2022-11-12T12:22:59.056Z,14.10
2022-11-12T12:26:03.045Z,14.20
2022-11-12T12:29:13.710Z,14.80
2022-11-12T12:32:34.191Z,16.10
2022-11-12T12:35:50.428Z,14.60
2022-11-12T12:38:59.436Z,14.80
2022-11-12T12:42:09.446Z,14.90
2022-11-12T12:45:38.134Z,15.00
2022-11-12T12:48:45.068Z,14.90
2022-11-12T12:51:50.338Z,14.80
2022-11-12T12:54:56.222Z,14.80
2022-11-12T12:58:00.923Z,14.70
2022-11-12T13:01:19.636Z,15.50
2022-11-12T13:04:53.002Z,15.80
2022-11-12T13:07:59.053Z,15.60
2022-11-12T13:11:00.642Z,16.30
2022-11-12T13:14:31.424Z,15.10
2022-11-12T13:17:47.796Z,15.20
2022-11-12T13:21:10.951Z,15.10
2022-11-12T13:24:14.153Z,15.30
2022-11-12T13:27:44.463Z,15.30
2022-11-12T13:30:45.971Z,15.80
2022-11-12T13:33:48.247Z,15.50
2022-11-12T13:36:58.278Z,15.30
2022-11-12T13:40:03.968Z,15.60
2022-11-12T13:43:40.335Z,15.80
2022-11-12T13:46:44.086Z,15.50
2022-11-12T13:49:47.302Z,15.70
2022-11-12T13:52:49.751Z,15.70
2022-11-12T13:55:53.448Z,15.50
2022-11-12T13:58:55.211Z,15.60
2022-11-12T14:01:56.843Z,15.40
2022-11-12T14:04:58.493Z,15.10
2022-11-12T14:08:11.918Z,15.70
2022-11-12T14:11:19.587Z,15.10
2022-11-12T14:14:47.308Z,15.00
2022-11-12T14:18:14.803Z,15.10
2022-11-12T14:21:17.982Z,15.70
2022-11-12T14:24:20.291Z,17.80
2022-11-12T14:27:34.013Z,14.90
2022-11-12T14:30:44.580Z,14.90
2022-11-12T14:33:46.089Z,14.50
2022-11-12T14:36:49.077Z,14.40
2022-11-12T14:39:50.796Z,14.50
2022-11-12T14:42:53.013Z,14.70
2022-11-12T14:45:56.461Z,14.50
2022-11-12T14:49:12.207Z,14.50
2022-11-12T14:52:31.322Z,14.30
2022-11-12T14:55:36.292Z,14.20
2022-11-12T14:58:39.795Z,14.10
2022-11-12T15:05:27.339Z,13.70
2022-11-12T15:08:34.888Z,13.90
2022-11-12T15:11:42.470Z,13.50
2022-11-12T15:14:44.048Z,13.90
2022-11-12T15:17:45.635Z,14.00
2022-11-12T15:21:11.786Z,13.90
2022-11-12T15:24:43.679Z,13.60
2022-11-12T15:27:45.303Z,15.50
2022-11-12T15:31:02.465Z,13.40
2022-11-12T15:34:41.230Z,13.10
2022-11-12T15:37:43.324Z,13.40
2022-11-12T15:40:54.530Z,13.10
2022-11-12T15:43:59.461Z,13.30
2022-11-12T15:47:01.570Z,13.20
2022-11-12T15:50:15.844Z,12.90
2022-11-12T15:53:17.430Z,12.90
2022-11-12T15:56:22.135Z,13.00
2022-11-12T15:59:23.719Z,12.70
2022-11-12T16:02:25.856Z,12.80
2022-11-12T16:05:27.365Z,12.90
2022-11-12T16:08:28.890Z,12.70
2022-11-12T16:11:36.344Z,13.00
2022-11-12T16:14:39.176Z,14.80
2022-11-12T16:17:40.977Z,12.70
2022-11-12T16:20:42.614Z,12.50
2022-11-12T16:23:44.560Z,12.60
2022-11-12T16:26:46.198Z,12.50
2022-11-12T16:29:47.721Z,12.50
2022-11-12T16:32:49.362Z,12.70
2022-11-12T16:35:51.265Z,12.40
2022-11-12T16:38:52.881Z,12.40
2022-11-12T16:41:54.442Z,12.30
2022-11-12T16:44:56.021Z,13.90
2022-11-12T16:47:58.205Z,12.40
2022-11-12T16:51:00.748Z,12.40
2022-11-12T16:54:02.494Z,12.30
2022-11-12T16:57:04.176Z,12.30
2022-11-12T17:00:07.126Z,13.40
2022-11-12T17:03:12.659Z,12.20
2022-11-12T17:06:14.192Z,12.40
2022-11-12T17:09:16.534Z,12.40
2022-11-12T17:12:18.045Z,12.00
2022-11-12T17:15:19.926Z,11.80
2022-11-12T17:18:21.432Z,11.90
2022-11-12T17:21:23.714Z,11.80
2022-11-12T17:24:28.679Z,11.80
2022-11-12T17:27:30.803Z,11.70
2022-11-12T17:30:35.118Z,11.60
2022-11-12T17:33:49.477Z,11.20
2022-11-12T17:36:50.977Z,11.70
2022-11-12T17:39:53.613Z,11.80
2022-11-12T17:42:55.143Z,11.50
2022-11-12T17:45:57.452Z,11.50
2022-11-12T17:48:59.042Z,12.90
2022-11-12T17:52:03.239Z,11.50
2022-11-12T17:55:14.578Z,12.00
2022-11-12T17:58:16.565Z,11.30
2022-11-12T18:01:21.825Z,11.00
2022-11-12T18:04:40.896Z,11.50
2022-11-12T18:07:42.788Z,10.90
2022-11-12T18:10:45.486Z,10.80
2022-11-12T18:13:47.116Z,12.80
2022-11-12T18:16:49.175Z,11.40
2022-11-12T18:19:51.432Z,11.20
2022-11-12T18:22:52.980Z,11.30
2022-11-12T18:25:54.542Z,10.80
2022-11-12T18:28:57.964Z,11.30
2022-11-12T18:31:59.579Z,11.20
2022-11-12T18:35:01.155Z,11.20
2022-11-12T18:38:02.750Z,11.20
2022-11-12T18:41:08.181Z,11.20
2022-11-12T18:44:09.964Z,10.90
2022-11-12T18:47:11.708Z,11.30
2022-11-12T18:50:13.415Z,11.20
2022-11-12T18:53:14.979Z,11.50
2022-11-12T18:56:19.075Z,11.30
2022-11-12T18:59:21.826Z,11.30
2022-11-12T19:02:23.395Z,11.20
2022-11-12T19:05:25.121Z,10.90
2022-11-12T19:08:26.706Z,10.90
2022-11-12T19:11:28.279Z,11.30
2022-11-12T19:14:30.261Z,11.20
2022-11-12T19:17:31.874Z,10.70
2022-11-12T19:20:33.392Z,11.10
2022-11-12T19:23:35.526Z,10.80
2022-11-12T19:26:37.050Z,11.20
2022-11-12T19:29:38.574Z,11.00
2022-11-12T19:32:40.212Z,11.30
2022-11-12T19:35:41.925Z,10.60
2022-11-12T19:38:43.808Z,11.00
2022-11-12T19:41:45.317Z,10.50
2022-11-12T19:44:47.009Z,10.70
2022-11-12T19:47:50.666Z,12.20
2022-11-12T19:50:52.870Z,12.00
2022-11-12T19:53:54.515Z,10.80
2022-11-12T19:56:56.082Z,10.90
2022-11-12T19:59:57.607Z,10.20
2022-11-12T20:02:59.954Z,10.30
2022-11-12T20:06:03.782Z,10.50
2022-11-12T20:09:05.439Z,10.10
2022-11-12T20:12:07.254Z,10.10
2022-11-12T20:15:09.426Z,10.10
2022-11-12T20:18:10.968Z,10.00
2022-11-12T20:21:12.583Z,10.10
2022-11-12T20:24:14.097Z,9.80
2022-11-12T20:27:17.428Z,9.90
2022-11-12T20:30:18.988Z,10.20
2022-11-12T20:33:20.547Z,10.20
2022-11-12T20:36:23.169Z,9.30
2022-11-12T20:39:24.715Z,9.70
2022-11-12T20:42:26.248Z,12.10
2022-11-12T20:45:27.891Z,9.70
2022-11-12T20:48:29.879Z,10.00
2022-11-12T20:51:33.208Z,9.90
2022-11-12T20:54:34.788Z,9.80
2022-11-12T20:57:36.393Z,10.00
2022-11-12T21:00:38.885Z,11.10
2022-11-12T21:03:40.740Z,10.90
2022-11-12T21:06:42.320Z,9.90
2022-11-12T21:09:44.722Z,10.00
2022-11-12T21:12:46.261Z,9.90
2022-11-12T21:15:48.113Z,11.80
2022-11-12T21:18:49.640Z,10.20
2022-11-12T21:21:51.180Z,10.10
2022-11-12T21:24:52.699Z,10.20
2022-11-12T21:27:54.339Z,10.40
2022-11-12T21:31:02.743Z,9.80
2022-11-12T21:34:04.824Z,10.20
2022-11-12T21:37:06.372Z,10.30
2022-11-12T21:40:08.664Z,9.50
2022-11-12T21:43:10.201Z,10.20
2022-11-12T21:46:25.130Z,10.10
2022-11-12T21:49:26.714Z,10.00
2022-11-12T21:52:28.811Z,10.00
2022-11-12T21:55:30.322Z,10.00
2022-11-12T21:58:31.955Z,9.30
2022-11-12T22:01:34.754Z,9.60
2022-11-12T22:04:36.417Z,9.70
2022-11-12T22:07:37.924Z,9.60
2022-11-12T22:10:39.470Z,9.80
2022-11-12T22:13:42.260Z,9.10
2022-11-12T22:16:43.995Z,9.20
2022-11-12T22:19:45.520Z,9.50
2022-11-12T22:22:47.035Z,9.60
2022-11-12T22:25:50.531Z,9.50
2022-11-12T22:28:56.872Z,9.40
2022-11-12T22:31:58.431Z,9.20
2022-11-12T22:35:00.026Z,9.20
2022-11-12T22:38:01.581Z,9.40
2022-11-12T22:41:05.457Z,9.00
2022-11-12T22:44:07.089Z,9.20
2022-11-12T22:47:08.589Z,8.80
2022-11-12T22:50:10.264Z,9.20
2022-11-12T22:53:11.775Z,9.30
2022-11-12T22:56:15.918Z,8.80
2022-11-12T22:59:17.422Z,8.80
2022-11-12T23:02:18.990Z,8.90
2022-11-12T23:05:20.505Z,9.10
2022-11-12T23:08:22.057Z,8.90
2022-11-12T23:11:33.013Z,9.10
2022-11-12T23:14:39.904Z,9.00
2022-11-12T23:17:41.420Z,8.70
2022-11-12T23:20:46.057Z,9.00
2022-11-12T23:23:47.668Z,8.90
2022-11-12T23:26:49.251Z,8.80
2022-11-12T23:29:53.203Z,8.50
2022-11-12T23:32:54.811Z,9.20
2022-11-12T23:36:15.093Z,9.10
2022-11-12T23:39:16.657Z,9.00
2022-11-12T23:42:18.268Z,9.10
2022-11-12T23:45:19.875Z,8.90
2022-11-12T23:48:22.209Z,8.50
2022-11-12T23:51:23.800Z,8.60
2022-11-12T23:54:25.406Z,8.80
2022-11-12T23:57:26.984Z,8.90
